F/V Cote D'ambre — FPEY — position and weather

sailwx.info

Track history (hours):
 
Tides and Currents Weather Stations Pressure Air Temp Water Temp Dewpoint Dewpoint Depression Visibility Wind Speed Wind Dir Waves Ship Positions

F/V Cote D'ambre

Last reported at 2017-Mar-24 19:33 UTC. Time now 2017-Mar-27 14:45 UTC.
Position N 47°44' W 003°22'.

Length 16 m; draft 4 m.

Type: Fishing. MMSI: 227128800.

Date/timePositionNaut miles runAvg speedWind from/ knotsBaromVisibWave heightAir tempDewpointWater temp
2017-Mar-24 19:33N 47°44' W 003°22'3 2.6
2017-Mar-24 18:33N 47°41' W 003°22'7 7.4
2017-Mar-24 17:33N 47°34' W 003°22'7 7.4
2017-Mar-24 16:33N 47°26' W 003°22'8 7.7
2017-Mar-24 15:33N 47°19' W 003°21'8 7.7
2017-Mar-24 14:33N 47°11' W 003°21'8 7.5
2017-Mar-24 13:29N 47°03' W 003°20'10 1.2
2017-Mar-24 04:33N 47°13' W 003°25'8 8.1
2017-Mar-24 03:34N 47°21' W 003°24'8 8.2
2017-Mar-24 02:34N 47°29' W 003°23'9 8.6
2017-Mar-24 01:33N 47°38' W 003°22'6 6.0
2017-Mar-24 00:32N 47°44' W 003°22'2 2.0
2017-Mar-23 23:33N 47°42' W 003°22'9 9.2
2017-Mar-23 22:33N 47°33' W 003°23'9 9.2
2017-Mar-23 21:33N 47°23' W 003°24'9 9.1
2017-Mar-23 20:33N 47°14' W 003°25'3 0.2
2017-Mar-23 02:23N 47°13' W 003°28'7 8.4
2017-Mar-23 01:33N 47°20' W 003°27'7 7.2
2017-Mar-23 00:33N 47°27' W 003°27'3 3.0
2017-Mar-22 23:34N 47°28' W 003°31'2 2.5
2017-Mar-22 22:34N 47°30' W 003°28'3 2.8
2017-Mar-22 21:34N 47°29' W 003°24'3 3.2
2017-Mar-22 20:34N 47°27' W 003°28'3 3.1
2017-Mar-22 19:34N 47°30' W 003°31'3 3.0
2017-Mar-22 18:33N 47°27' W 003°30'4 3.5
2017-Mar-22 17:33N 47°24' W 003°27'2 1.7
2017-Mar-22 16:33N 47°24' W 003°29'3 2.6
2017-Mar-22 15:33N 47°26' W 003°32'1 0.6
2017-Mar-22 14:33N 47°25' W 003°32'4 3.5
2017-Mar-22 13:33N 47°22' W 003°28'3 3.5
2017-Mar-22 12:33N 47°20' W 003°24'2 1.7
2017-Mar-22 11:34N 47°20' W 003°27'3 3.5
2017-Mar-22 10:34N 47°23' W 003°29'1 0.8
2017-Mar-22 09:34N 47°24' W 003°28'1 1.4
2017-Mar-22 08:34N 47°22' W 003°28'3 3.2
2017-Mar-22 07:34N 47°25' W 003°30'3 3.3
2017-Mar-22 06:34N 47°28' W 003°31'3 3.4
2017-Mar-22 05:34N 47°31' W 003°28'7 6.7
2017-Mar-22 04:34N 47°37' W 003°22'7 7.1
2017-Mar-22 03:33N 47°44' W 003°22'0 0.2
2017-Mar-22 02:33N 47°44' W 003°22'1 1.0
2017-Mar-22 01:33N 47°43' W 003°22'8 7.7
2017-Mar-22 00:33N 47°35' W 003°23'5 4.8
2017-Mar-21 23:33N 47°31' W 003°27'4 3.6
2017-Mar-21 22:33N 47°28' W 003°28'3 3.5
2017-Mar-21 21:33N 47°24' W 003°29'4 3.6
2017-Mar-21 20:33N 47°21' W 003°28'3 3.4
2017-Mar-21 19:33N 47°19' W 003°24'3 3.0
2017-Mar-21 18:33N 47°17' W 003°20'1 0.6
2017-Mar-21 17:33N 47°17' W 003°21'2 2.3
2017-Mar-21 16:33N 47°18' W 003°24'1 0.5
2017-Mar-21 15:33N 47°18' W 003°23'3 2.7
2017-Mar-21 14:33N 47°16' W 003°20'1 1.4
2017-Mar-21 13:33N 47°18' W 003°21'2 2.2
2017-Mar-21 12:33N 47°19' W 003°24'3 2.7
2017-Mar-21 11:33N 47°17' W 003°21'1 0.5
2017-Mar-21 10:34N 47°17' W 003°20'3 3.4
2017-Mar-21 09:34N 47°19' W 003°24'3 2.7
2017-Mar-21 08:33N 47°20' W 003°28'2 1.7
2017-Mar-21 07:33N 47°21' W 003°29'3 2.5
2017-Mar-21 06:33N 47°24' W 003°29'5 4.6
2017-Mar-21 05:33N 47°28' W 003°27'7 7.3
2017-Mar-21 04:33N 47°35' W 003°22'8 7.7
2017-Mar-21 03:33N 47°42' W 003°22'1 1.4
2017-Mar-21 02:32N 47°44' W 003°22'2 2.4
2017-Mar-21 01:34N 47°41' W 003°22'7 7.2
2017-Mar-21 00:34N 47°34' W 003°23'5 4.7
2017-Mar-20 23:33N 47°30' W 003°25'2 2.0
2017-Mar-20 22:34N 47°28' W 003°25'3 3.3
2017-Mar-20 21:33N 47°29' W 003°30'3 3.0
2017-Mar-20 20:33N 47°27' W 003°33'3 3.1
2017-Mar-20 19:33N 47°27' W 003°28'1 1.4
2017-Mar-20 18:34N 47°27' W 003°26'3 3.3
2017-Mar-20 17:33N 47°25' W 003°30'3 3.0
2017-Mar-20 16:34N 47°22' W 003°28'2 2.0
2017-Mar-20 15:33N 47°20' W 003°28'3 3.4
2017-Mar-20 14:34N 47°21' W 003°33'3 2.6
2017-Mar-20 13:33N 47°20' W 003°29'2 1.8
2017-Mar-20 12:33N 47°21' W 003°27'2 2.4
2017-Mar-20 11:33N 47°20' W 003°30'3 3.2
2017-Mar-20 10:33N 47°20' W 003°26'0 0.2
2017-Mar-20 09:34N 47°20' W 003°25'3 3.5
2017-Mar-20 08:33N 47°20' W 003°31'3 2.7
2017-Mar-20 07:33N 47°22' W 003°28'3 2.9
2017-Mar-20 06:33N 47°25' W 003°29'7 6.8
2017-Mar-20 05:33N 47°31' W 003°25'7 7.3
2017-Mar-20 04:33N 47°38' W 003°22'5 0.1
2017-Mar-18 05:13N 47°44' W 003°22'0 0.1
2017-Mar-18 04:32N 47°44' W 003°22'0 0.2
2017-Mar-18 03:31N 47°44' W 003°22'0 0.0
2017-Mar-18 02:31N 47°44' W 003°22'4 4.1
2017-Mar-18 01:33N 47°40' W 003°22'7 7.4
2017-Mar-18 00:33N 47°33' W 003°28'4 4.3
2017-Mar-17 23:33N 47°31' W 003°32'3 3.5
2017-Mar-17 22:33N 47°27' W 003°30'3 3.5
2017-Mar-17 21:33N 47°24' W 003°28'3 3.3
2017-Mar-17 20:33N 47°21' W 003°28'1 1.3
2017-Mar-17 19:33N 47°20' W 003°29'1 1.0
2017-Mar-17 18:32N 47°21' W 003°28'2 1.6
2017-Mar-17 17:33N 47°20' W 003°30'3 2.7
2017-Mar-17 16:33N 47°22' W 003°32'2 1.8
2017-Mar-17 15:33N 47°22' W 003°29'1 1.3
2017-Mar-17 14:33N 47°23' W 003°29'2 1.9
2017-Mar-17 13:33N 47°23' W 003°32'1 0.8
2017-Mar-17 12:33N 47°23' W 003°31'1 0.5
2017-Mar-17 11:33N 47°23' W 003°30'1 1.2
2017-Mar-17 10:33N 47°24' W 003°31'2 1.6
2017-Mar-17 09:33N 47°23' W 003°29'2 2.3
2017-Mar-17 08:34N 47°22' W 003°27'3 2.8
2017-Mar-17 07:33N 47°23' W 003°31'3 3.4
2017-Mar-17 06:33N 47°24' W 003°26'2 2.1
2017-Mar-17 05:34N 47°25' W 003°29'6 6.2
2017-Mar-17 04:34N 47°31' W 003°25'6 6.2
2017-Mar-17 03:33N 47°37' W 003°22'6 6.4
2017-Mar-17 02:33N 47°44' W 003°22'0 0.3
2017-Mar-17 01:33N 47°44' W 003°22'5 5.0
2017-Mar-17 00:33N 47°39' W 003°22'9 8.7
2017-Mar-16 23:33N 47°30' W 003°24'4 3.8
2017-Mar-16 22:33N 47°27' W 003°26'2 2.3
2017-Mar-16 21:33N 47°29' W 003°28'3 2.8
2017-Mar-16 20:33N 47°28' W 003°24'4 3.6
2017-Mar-16 19:33N 47°26' W 003°27'2 2.0
2017-Mar-16 18:33N 47°24' W 003°26'2 2.4
2017-Mar-16 17:34N 47°22' W 003°28'1 1.0
2017-Mar-16 16:34N 47°22' W 003°30'1 1.3
2017-Mar-16 15:33N 47°23' W 003°31'3 3.1
2017-Mar-16 14:33N 47°22' W 003°27'3 3.1
2017-Mar-16 13:33N 47°23' W 003°31'3 3.4
2017-Mar-16 12:33N 47°21' W 003°27'1 1.1
2017-Mar-16 11:34N 47°22' W 003°27'2 2.4
2017-Mar-16 10:34N 47°22' W 003°31'3 2.5
2017-Mar-16 09:33N 47°23' W 003°27'3 2.5
2017-Mar-16 08:34N 47°25' W 003°27'3 3.1
2017-Mar-16 07:33N 47°23' W 003°31'1 0.6
2017-Mar-16 06:33N 47°23' W 003°30'4 3.6
2017-Mar-16 05:33N 47°26' W 003°27'3 2.9
2017-Mar-16 04:33N 47°28' W 003°24'3 2.7
2017-Mar-16 03:33N 47°30' W 003°28'3 2.7
2017-Mar-16 02:33N 47°27' W 003°27'3 3.0
2017-Mar-16 01:33N 47°29' W 003°24'3 3.2
2017-Mar-16 00:33N 47°29' W 003°29'3 2.9
2017-Mar-15 23:33N 47°27' W 003°25'2 2.2
2017-Mar-15 22:33N 47°30' W 003°26'3 2.7
2017-Mar-15 21:33N 47°27' W 003°28'3 3.2
2017-Mar-15 20:33N 47°29' W 003°24'4 3.8
2017-Mar-15 19:33N 47°32' W 003°28'1 1.2
2017-Mar-15 18:33N 47°33' W 003°26'3 3.1
2017-Mar-15 17:33N 47°30' W 003°24'1 1.5
2017-Mar-15 16:32N 47°31' W 003°23'2 2.3
2017-Mar-15 15:33N 47°32' W 003°25'3 3.1
2017-Mar-15 14:33N 47°30' W 003°22'3 3.5
2017-Mar-15 13:33N 47°27' W 003°26'5 4.6
2017-Mar-15 12:32N 47°23' W 003°26'3 3.0
2017-Mar-15 11:29N 47°19' W 003°26'2 1.7
2017-Mar-15 10:30N 47°20' W 003°23'4 3.9
2017-Mar-15 09:33N 47°17' W 003°20'2 2.2
2017-Mar-15 08:32N 47°15' W 003°17'4 3.7
2017-Mar-15 07:32N 47°18' W 003°21'0 0.4
2017-Mar-15 06:32N 47°18' W 003°21'5 5.5
2017-Mar-15 05:33N 47°24' W 003°23'9 8.6
2017-Mar-15 04:33N 47°32' W 003°22'8 8.6
2017-Mar-15 03:33N 47°41' W 003°22'3 2.8
2017-Mar-15 02:31N 47°44' W 003°22'0 0.0
2017-Mar-15 01:32N 47°44' W 003°22'8 8.0
2017-Mar-15 00:33N 47°36' W 003°23'6 5.8
2017-Mar-14 23:33N 47°31' W 003°27'2 1.8
2017-Mar-14 22:33N 47°33' W 003°26'3 2.8
2017-Mar-14 21:32N 47°30' W 003°25'2 2.4
2017-Mar-14 20:33N 47°27' W 003°25'4 3.7
2017-Mar-14 19:33N 47°24' W 003°27'  
Track history (hours):
 
Tides and Currents Weather Stations Pressure Air Temp Water Temp Dewpoint Dewpoint Depression Visibility Wind Speed Wind Dir Waves Ship Positions

F/V Cote D'ambre

Last reported at 2017-Mar-24 19:33 UTC. Time now 2017-Mar-27 14:45 UTC.
Position N 47°44' W 003°22'.

Length 16 m; draft 4 m.

Type: Fishing. MMSI: 227128800.

Date/timePositionNaut miles runAvg speedWind from/ knotsBaromVisibWave heightAir tempDewpointWater temp
2017-Mar-24 19:33N 47°44' W 003°22'3 2.6
2017-Mar-24 18:33N 47°41' W 003°22'7 7.4
2017-Mar-24 17:33N 47°34' W 003°22'7 7.4
2017-Mar-24 16:33N 47°26' W 003°22'8 7.7
2017-Mar-24 15:33N 47°19' W 003°21'8 7.7
2017-Mar-24 14:33N 47°11' W 003°21'8 7.5
2017-Mar-24 13:29N 47°03' W 003°20'10 1.2
2017-Mar-24 04:33N 47°13' W 003°25'8 8.1
2017-Mar-24 03:34N 47°21' W 003°24'8 8.2
2017-Mar-24 02:34N 47°29' W 003°23'9 8.6
2017-Mar-24 01:33N 47°38' W 003°22'6 6.0
2017-Mar-24 00:32N 47°44' W 003°22'2 2.0
2017-Mar-23 23:33N 47°42' W 003°22'9 9.2
2017-Mar-23 22:33N 47°33' W 003°23'9 9.2
2017-Mar-23 21:33N 47°23' W 003°24'9 9.1
2017-Mar-23 20:33N 47°14' W 003°25'3 0.2
2017-Mar-23 02:23N 47°13' W 003°28'7 8.4
2017-Mar-23 01:33N 47°20' W 003°27'7 7.2
2017-Mar-23 00:33N 47°27' W 003°27'3 3.0
2017-Mar-22 23:34N 47°28' W 003°31'2 2.5
2017-Mar-22 22:34N 47°30' W 003°28'3 2.8
2017-Mar-22 21:34N 47°29' W 003°24'3 3.2
2017-Mar-22 20:34N 47°27' W 003°28'3 3.1
2017-Mar-22 19:34N 47°30' W 003°31'3 3.0
2017-Mar-22 18:33N 47°27' W 003°30'4 3.5
2017-Mar-22 17:33N 47°24' W 003°27'2 1.7
2017-Mar-22 16:33N 47°24' W 003°29'3 2.6
2017-Mar-22 15:33N 47°26' W 003°32'1 0.6
2017-Mar-22 14:33N 47°25' W 003°32'4 3.5
2017-Mar-22 13:33N 47°22' W 003°28'3 3.5
2017-Mar-22 12:33N 47°20' W 003°24'2 1.7
2017-Mar-22 11:34N 47°20' W 003°27'3 3.5
2017-Mar-22 10:34N 47°23' W 003°29'1 0.8
2017-Mar-22 09:34N 47°24' W 003°28'1 1.4
2017-Mar-22 08:34N 47°22' W 003°28'3 3.2
2017-Mar-22 07:34N 47°25' W 003°30'3 3.3
2017-Mar-22 06:34N 47°28' W 003°31'3 3.4
2017-Mar-22 05:34N 47°31' W 003°28'7 6.7
2017-Mar-22 04:34N 47°37' W 003°22'7 7.1
2017-Mar-22 03:33N 47°44' W 003°22'0 0.2
2017-Mar-22 02:33N 47°44' W 003°22'1 1.0
2017-Mar-22 01:33N 47°43' W 003°22'8 7.7
2017-Mar-22 00:33N 47°35' W 003°23'5 4.8
2017-Mar-21 23:33N 47°31' W 003°27'4 3.6
2017-Mar-21 22:33N 47°28' W 003°28'3 3.5
2017-Mar-21 21:33N 47°24' W 003°29'4 3.6
2017-Mar-21 20:33N 47°21' W 003°28'3 3.4
2017-Mar-21 19:33N 47°19' W 003°24'3 3.0
2017-Mar-21 18:33N 47°17' W 003°20'1 0.6
2017-Mar-21 17:33N 47°17' W 003°21'2 2.3
2017-Mar-21 16:33N 47°18' W 003°24'1 0.5
2017-Mar-21 15:33N 47°18' W 003°23'3 2.7
2017-Mar-21 14:33N 47°16' W 003°20'1 1.4
2017-Mar-21 13:33N 47°18' W 003°21'2 2.2
2017-Mar-21 12:33N 47°19' W 003°24'3 2.7
2017-Mar-21 11:33N 47°17' W 003°21'1 0.5
2017-Mar-21 10:34N 47°17' W 003°20'3 3.4
2017-Mar-21 09:34N 47°19' W 003°24'3 2.7
2017-Mar-21 08:33N 47°20' W 003°28'2 1.7
2017-Mar-21 07:33N 47°21' W 003°29'3 2.5
2017-Mar-21 06:33N 47°24' W 003°29'5 4.6
2017-Mar-21 05:33N 47°28' W 003°27'7 7.3
2017-Mar-21 04:33N 47°35' W 003°22'8 7.7
2017-Mar-21 03:33N 47°42' W 003°22'1 1.4
2017-Mar-21 02:32N 47°44' W 003°22'2 2.4
2017-Mar-21 01:34N 47°41' W 003°22'7 7.2
2017-Mar-21 00:34N 47°34' W 003°23'5 4.7
2017-Mar-20 23:33N 47°30' W 003°25'2 2.0
2017-Mar-20 22:34N 47°28' W 003°25'3 3.3
2017-Mar-20 21:33N 47°29' W 003°30'3 3.0
2017-Mar-20 20:33N 47°27' W 003°33'3 3.1
2017-Mar-20 19:33N 47°27' W 003°28'1 1.4
2017-Mar-20 18:34N 47°27' W 003°26'3 3.3
2017-Mar-20 17:33N 47°25' W 003°30'3 3.0
2017-Mar-20 16:34N 47°22' W 003°28'2 2.0
2017-Mar-20 15:33N 47°20' W 003°28'3 3.4
2017-Mar-20 14:34N 47°21' W 003°33'3 2.6
2017-Mar-20 13:33N 47°20' W 003°29'2 1.8
2017-Mar-20 12:33N 47°21' W 003°27'2 2.4
2017-Mar-20 11:33N 47°20' W 003°30'3 3.2
2017-Mar-20 10:33N 47°20' W 003°26'0 0.2
2017-Mar-20 09:34N 47°20' W 003°25'3 3.5
2017-Mar-20 08:33N 47°20' W 003°31'3 2.7
2017-Mar-20 07:33N 47°22' W 003°28'3 2.9
2017-Mar-20 06:33N 47°25' W 003°29'7 6.8
2017-Mar-20 05:33N 47°31' W 003°25'7 7.3
2017-Mar-20 04:33N 47°38' W 003°22'5 0.1
2017-Mar-18 05:13N 47°44' W 003°22'0 0.1
2017-Mar-18 04:32N 47°44' W 003°22'0 0.2
2017-Mar-18 03:31N 47°44' W 003°22'0 0.0
2017-Mar-18 02:31N 47°44' W 003°22'4 4.1
2017-Mar-18 01:33N 47°40' W 003°22'7 7.4
2017-Mar-18 00:33N 47°33' W 003°28'4 4.3
2017-Mar-17 23:33N 47°31' W 003°32'3 3.5
2017-Mar-17 22:33N 47°27' W 003°30'3 3.5
2017-Mar-17 21:33N 47°24' W 003°28'3 3.3
2017-Mar-17 20:33N 47°21' W 003°28'1 1.3
2017-Mar-17 19:33N 47°20' W 003°29'1 1.0
2017-Mar-17 18:32N 47°21' W 003°28'2 1.6
2017-Mar-17 17:33N 47°20' W 003°30'3 2.7
2017-Mar-17 16:33N 47°22' W 003°32'2 1.8
2017-Mar-17 15:33N 47°22' W 003°29'1 1.3
2017-Mar-17 14:33N 47°23' W 003°29'2 1.9
2017-Mar-17 13:33N 47°23' W 003°32'1 0.8
2017-Mar-17 12:33N 47°23' W 003°31'1 0.5
2017-Mar-17 11:33N 47°23' W 003°30'1 1.2
2017-Mar-17 10:33N 47°24' W 003°31'2 1.6
2017-Mar-17 09:33N 47°23' W 003°29'2 2.3
2017-Mar-17 08:34N 47°22' W 003°27'3 2.8
2017-Mar-17 07:33N 47°23' W 003°31'3 3.4
2017-Mar-17 06:33N 47°24' W 003°26'2 2.1
2017-Mar-17 05:34N 47°25' W 003°29'6 6.2
2017-Mar-17 04:34N 47°31' W 003°25'6 6.2
2017-Mar-17 03:33N 47°37' W 003°22'6 6.4
2017-Mar-17 02:33N 47°44' W 003°22'0 0.3
2017-Mar-17 01:33N 47°44' W 003°22'5 5.0
2017-Mar-17 00:33N 47°39' W 003°22'9 8.7
2017-Mar-16 23:33N 47°30' W 003°24'4 3.8
2017-Mar-16 22:33N 47°27' W 003°26'2 2.3
2017-Mar-16 21:33N 47°29' W 003°28'3 2.8
2017-Mar-16 20:33N 47°28' W 003°24'4 3.6
2017-Mar-16 19:33N 47°26' W 003°27'2 2.0
2017-Mar-16 18:33N 47°24' W 003°26'2 2.4
2017-Mar-16 17:34N 47°22' W 003°28'1 1.0
2017-Mar-16 16:34N 47°22' W 003°30'1 1.3
2017-Mar-16 15:33N 47°23' W 003°31'3 3.1
2017-Mar-16 14:33N 47°22' W 003°27'3 3.1
2017-Mar-16 13:33N 47°23' W 003°31'3 3.4
2017-Mar-16 12:33N 47°21' W 003°27'1 1.1
2017-Mar-16 11:34N 47°22' W 003°27'2 2.4
2017-Mar-16 10:34N 47°22' W 003°31'3 2.5
2017-Mar-16 09:33N 47°23' W 003°27'3 2.5
2017-Mar-16 08:34N 47°25' W 003°27'3 3.1
2017-Mar-16 07:33N 47°23' W 003°31'1 0.6
2017-Mar-16 06:33N 47°23' W 003°30'4 3.6
2017-Mar-16 05:33N 47°26' W 003°27'3 2.9
2017-Mar-16 04:33N 47°28' W 003°24'3 2.7
2017-Mar-16 03:33N 47°30' W 003°28'3 2.7
2017-Mar-16 02:33N 47°27' W 003°27'3 3.0
2017-Mar-16 01:33N 47°29' W 003°24'3 3.2
2017-Mar-16 00:33N 47°29' W 003°29'3 2.9
2017-Mar-15 23:33N 47°27' W 003°25'2 2.2
2017-Mar-15 22:33N 47°30' W 003°26'3 2.7
2017-Mar-15 21:33N 47°27' W 003°28'3 3.2
2017-Mar-15 20:33N 47°29' W 003°24'4 3.8
2017-Mar-15 19:33N 47°32' W 003°28'1 1.2
2017-Mar-15 18:33N 47°33' W 003°26'3 3.1
2017-Mar-15 17:33N 47°30' W 003°24'1 1.5
2017-Mar-15 16:32N 47°31' W 003°23'2 2.3
2017-Mar-15 15:33N 47°32' W 003°25'3 3.1
2017-Mar-15 14:33N 47°30' W 003°22'3 3.5
2017-Mar-15 13:33N 47°27' W 003°26'5 4.6
2017-Mar-15 12:32N 47°23' W 003°26'3 3.0
2017-Mar-15 11:29N 47°19' W 003°26'2 1.7
2017-Mar-15 10:30N 47°20' W 003°23'4 3.9
2017-Mar-15 09:33N 47°17' W 003°20'2 2.2
2017-Mar-15 08:32N 47°15' W 003°17'4 3.7
2017-Mar-15 07:32N 47°18' W 003°21'0 0.4
2017-Mar-15 06:32N 47°18' W 003°21'5 5.5
2017-Mar-15 05:33N 47°24' W 003°23'9 8.6
2017-Mar-15 04:33N 47°32' W 003°22'8 8.6
2017-Mar-15 03:33N 47°41' W 003°22'3 2.8
2017-Mar-15 02:31N 47°44' W 003°22'0 0.0
2017-Mar-15 01:32N 47°44' W 003°22'8 8.0
2017-Mar-15 00:33N 47°36' W 003°23'6 5.8
2017-Mar-14 23:33N 47°31' W 003°27'2 1.8
2017-Mar-14 22:33N 47°33' W 003°26'3 2.8
2017-Mar-14 21:32N 47°30' W 003°25'2 2.4
2017-Mar-14 20:33N 47°27' W 003°25'4 3.7
2017-Mar-14 19:33N 47°24' W 003°27'  

Dump ship's entire track history